Toowoomba, Queensland

6:15 AM EST on July 13, 2014 (GMT +1000)
Parkwood Mt Lofty (IQUEENSL473) Elev 2205 ft | 27.55 °S, 151.98 °E | Change Station

Current weather conditions updated 0 second ago

Clear
Clear
40.3 °F
Feels Like 37 °F
N
5.1
Wind Variable Wind from SSE
Gusts 6.0 mph

Today is forecast to be nearly the same temperature as yesterday.

Today
High -- | Low -- °F
--% Chance of Precip.
Yesterday
High -- | Low -- °F
Precip. -- in
6:42 AM 5:13 PM
Full, 100% visible
Pressure 30.18 in
Visibility 6.2 miles
Clouds
Windchill 37 °F
Dew Point 32 °F
Humidity 71%
Rainfall 0.00 in
Snow Depth Not available.
UV Not available.
Pollen Not available.
Air Quality Not available.
Flu Activity Not available.
METAR YBOK 122000Z AUTO 07003KT 9999 // NCD M05/M07 Q1022

More Conditions Fewer Conditions

Pressure 30.18 in
Visibility 6.2 miles
Clouds
Windchill 37 °F
Dew Point 32 °F
Humidity 71%
Rainfall 0.00 in
Snow Depth Not available.
UV Not available.
Pollen Not available.
Air Quality Not available.
Flu Activity Not available.
METAR YBOK 122000Z AUTO 07003KT 9999 // NCD M05/M07 Q1022

More Conditions Fewer Conditions

10-Day Weather Forecast

Almanac

Astronomy

Jul. 13, 2014 Rise Set
Actual Time 6:42 AM EST 5:13 PM EST
Civil Twilight 6:16 AM EST 5:39 PM EST
Nautical Twilight 5:48 AM EST 6:08 PM EST
Astronomical Twilight 5:19 AM EST 6:36 PM EST
Moon 6:14 PM EST (7/13) 6:51 AM EST (7/13)
Length of Visible Light 11h 22m
Length of Day
10h 31m
Tomorrow will be 0m 43s longer.
Full, 100% of the Moon is Illuminated
Jul 12
Full
Jul 18
Last Quarter
Jul 26
New
Aug 3
First Quarter
Aug 10
Full

Yesterday's Extremes

Country Highs Country Lows

Community

WunderPhotos

Upload Photos

1,732,946 photos uploaded!

WunderBlogs® & News

Nearby

Snow Depth

Not available.

Earthquake Activity

City Distance Mag. Time & Date
No recent earthquake activity has been reported nearby.
Minimum magnitude displayed is 2.5.

Coastal Water Temperatures

Place Temperature
No Stations Reporting

Nearby Weather Stations

Station Location Temp. Windchill Dew Point Humidity Wind Precip. Elev Updated Type
Parkwood Mt Lofty, Toowoomba 40.3 °F 37 °F 32 °F 71% SSE  at  5.1 mph 0.00 in / hr 2205 ft 6:15 AM EST Rapid Fire
Middle Ridge, Middle Ridge 41.5 °F 36 °F 36 °F 79% SW  at  8.3 mph 0.00 in / hr 2215 ft 6:15 AM EST Rapid Fire
Highfields Queensland, Highfields 40.6 °F 41 °F 34 °F 77% South  at  2.2 mph 0.00 in / hr 2100 ft 6:15 AM EST Normal
Top Camp, Toowoomba 41.0 °F 39 °F 33 °F 74% South  at  3.1 mph 0.00 in / hr 2369 ft 6:15 AM EST Rapid Fire
Cooby Dam, Meringandan 37.6 °F 38 °F 32 °F 80% SSW  at  1.0 mph 0.00 in / hr 1827 ft 6:00 AM EST Normal
16 Tooth St NOBBY Qld 4360, Nobby 32.7 °F 33 °F 29 °F 85% South  at  0.0 mph 0.00 in / hr 1581 ft 6:12 AM EST Normal
Crows Nest, Crows Nest 37.0 °F 37 °F 28 °F 69% North  at  0.0 mph 0.00 in / hr 1772 ft 6:15 AM EST Rapid Fire

Show More Stations Show Fewer Stations